createdAt,value
2023-01-03T00:02:17.975Z,1.60
2023-01-03T00:05:06.419Z,1.80
2023-01-03T00:07:54.565Z,1.70
2023-01-03T00:10:42.890Z,2.30
2023-01-03T00:13:31.268Z,1.88
2023-01-03T00:16:20.125Z,1.80
2023-01-03T00:19:11.209Z,1.98
2023-01-03T00:21:59.412Z,1.70
2023-01-03T00:24:48.902Z,1.73
2023-01-03T00:27:36.926Z,1.50
2023-01-03T00:30:24.807Z,1.40
2023-01-03T00:33:12.723Z,1.65
2023-01-03T00:36:04.429Z,1.58
2023-01-03T00:38:52.393Z,1.50
2023-01-03T00:41:43.592Z,1.40
2023-01-03T00:44:31.568Z,1.48
2023-01-03T00:47:19.288Z,1.40
2023-01-03T00:50:08.019Z,1.50
2023-01-03T00:52:57.912Z,1.55
2023-01-03T00:55:46.784Z,1.50
2023-01-03T00:58:38.881Z,2.10
2023-01-03T01:01:36.500Z,1.80
2023-01-03T01:04:33.469Z,1.70
2023-01-03T01:07:30.084Z,1.48
2023-01-03T01:10:25.157Z,1.60
2023-01-03T01:13:17.176Z,1.60
2023-01-03T01:16:17.131Z,1.70
2023-01-03T01:19:28.337Z,1.42
2023-01-03T01:22:21.603Z,1.60
2023-01-03T01:25:13.842Z,1.50
2023-01-03T01:28:07.957Z,1.73
2023-01-03T01:30:59.616Z,1.80
2023-01-03T01:34:12.730Z,1.50
2023-01-03T01:37:12.960Z,1.60
2023-01-03T01:40:25.704Z,1.73
2023-01-03T01:43:55.693Z,1.60
2023-01-03T01:50:04.325Z,1.60
2023-01-03T01:53:04.073Z,1.40
2023-01-03T01:55:57.969Z,1.50
2023-01-03T01:59:00.668Z,1.60
2023-01-03T02:02:02.030Z,1.65
2023-01-03T02:04:56.237Z,1.60
2023-01-03T02:07:45.364Z,1.60
2023-01-03T02:10:50.543Z,1.70
2023-01-03T02:25:34.128Z,1.50
2023-01-03T02:29:03.036Z,1.58
2023-01-03T02:32:08.657Z,1.25
2023-01-03T02:35:06.057Z,1.63
2023-01-03T02:38:17.214Z,1.90
2023-01-03T02:41:11.131Z,1.80
2023-01-03T02:44:07.041Z,1.77
2023-01-03T02:46:59.745Z,2.03
2023-01-03T02:50:14.978Z,1.35
2023-01-03T02:53:12.473Z,1.70
2023-01-03T02:56:05.407Z,1.50
2023-01-03T03:01:50.958Z,1.67
2023-01-03T03:04:43.813Z,1.60
2023-01-03T03:07:35.599Z,1.80
2023-01-03T03:10:42.131Z,1.30
2023-01-03T03:13:36.975Z,1.50
2023-01-03T03:16:41.018Z,1.70
2023-01-03T03:19:49.350Z,1.45
2023-01-03T03:23:05.023Z,1.60
2023-01-03T03:25:56.536Z,1.58
2023-01-03T03:28:52.751Z,1.58
2023-01-03T03:31:46.496Z,1.50
2023-01-03T03:35:45.945Z,1.60
2023-01-03T03:42:31.824Z,1.67
2023-01-03T03:45:33.024Z,1.55
2023-01-03T03:48:28.460Z,1.60
2023-01-03T03:51:44.217Z,1.55
2023-01-03T03:54:37.104Z,1.50
2023-01-03T03:57:30.402Z,1.63
2023-01-03T04:11:53.758Z,1.60
2023-01-03T04:14:47.245Z,1.63
2023-01-03T04:25:00.448Z,1.60
2023-01-03T04:28:03.872Z,1.60
2023-01-03T04:31:03.339Z,1.85
2023-01-03T04:34:26.566Z,1.50
2023-01-03T04:37:18.960Z,1.63
2023-01-03T04:40:07.740Z,1.88
2023-01-03T04:43:14.410Z,1.60
2023-01-03T04:46:02.230Z,1.60
2023-01-03T04:48:50.323Z,1.77
2023-01-03T04:51:38.273Z,2.00
2023-01-03T04:54:26.160Z,1.60
2023-01-03T04:57:15.942Z,1.70
2023-01-03T05:00:06.084Z,1.90
2023-01-03T05:02:54.523Z,1.48
2023-01-03T05:05:42.818Z,1.90
2023-01-03T05:08:30.869Z,2.10
2023-01-03T05:11:18.886Z,1.80
2023-01-03T05:14:12.431Z,1.77
2023-01-03T05:17:05.261Z,1.63
2023-01-03T05:20:10.720Z,2.00
2023-01-03T05:23:15.732Z,2.20
2023-01-03T05:26:11.227Z,1.90
2023-01-03T05:28:59.698Z,1.55
2023-01-03T05:31:49.957Z,1.80
2023-01-03T05:34:38.957Z,2.03
2023-01-03T05:37:28.918Z,1.95
2023-01-03T05:40:16.914Z,1.98
2023-01-03T05:43:05.057Z,1.77
2023-01-03T05:45:54.362Z,2.00
2023-01-03T05:48:42.073Z,2.08
2023-01-03T05:51:31.348Z,2.00
2023-01-03T05:54:21.204Z,1.70
2023-01-03T05:57:09.222Z,1.88
2023-01-03T05:59:57.305Z,2.00
2023-01-03T06:02:45.304Z,2.08
2023-01-03T06:05:33.308Z,2.13
2023-01-03T06:08:22.683Z,2.10
2023-01-03T06:11:12.581Z,2.40
2023-01-03T06:14:01.656Z,1.83
2023-01-03T06:17:06.779Z,2.40
2023-01-03T06:19:55.975Z,2.45
2023-01-03T06:22:43.700Z,2.83
2023-01-03T06:25:36.655Z,2.47
2023-01-03T06:28:24.331Z,3.30
2023-01-03T06:31:12.882Z,2.60
2023-01-03T06:34:03.702Z,2.67
2023-01-03T06:36:51.552Z,2.63
2023-01-03T06:39:39.514Z,2.60
2023-01-03T06:42:42.828Z,2.28
2023-01-03T06:45:48.860Z,2.45
2023-01-03T06:48:56.723Z,2.58
2023-01-03T06:52:01.690Z,2.42
2023-01-03T06:54:49.667Z,3.40
2023-01-03T06:57:38.867Z,2.60
2023-01-03T07:00:26.789Z,2.00
2023-01-03T07:03:14.901Z,2.40
2023-01-03T07:06:04.989Z,2.65
2023-01-03T07:08:54.084Z,2.58
2023-01-03T07:11:44.849Z,2.38
2023-01-03T07:14:36.827Z,2.28
2023-01-03T07:17:24.438Z,2.30
2023-01-03T07:20:15.474Z,2.38
2023-01-03T07:23:03.169Z,2.25
2023-01-03T07:25:51.103Z,2.15
2023-01-03T07:28:39.057Z,2.33
2023-01-03T07:31:28.901Z,2.35
2023-01-03T07:34:17.142Z,2.75
2023-01-03T07:37:05.245Z,2.28
2023-01-03T07:39:53.209Z,2.20
2023-01-03T07:42:59.094Z,2.50
2023-01-03T07:45:48.206Z,2.33
2023-01-03T07:48:37.962Z,2.47
2023-01-03T07:51:27.842Z,2.30
2023-01-03T07:54:15.934Z,2.53
2023-01-03T07:57:06.036Z,2.30
2023-01-03T07:59:57.648Z,2.60
2023-01-03T08:02:47.331Z,2.50
2023-01-03T08:05:37.324Z,2.40
2023-01-03T08:08:26.981Z,2.42
2023-01-03T08:11:33.537Z,2.45
2023-01-03T08:14:25.669Z,2.83
2023-01-03T08:17:14.180Z,2.47
2023-01-03T08:20:02.506Z,4.45
2023-01-03T08:22:53.825Z,3.28
2023-01-03T08:26:02.073Z,2.90
2023-01-03T08:28:53.222Z,2.85
2023-01-03T08:31:45.667Z,2.70
2023-01-03T08:34:38.540Z,3.13
2023-01-03T08:37:29.424Z,3.00
2023-01-03T08:40:19.972Z,2.50
2023-01-03T08:43:08.307Z,3.00
2023-01-03T08:45:56.401Z,2.67
2023-01-03T08:48:45.336Z,5.00
2023-01-03T08:51:35.227Z,4.95
2023-01-03T08:54:23.248Z,4.60
2023-01-03T08:57:15.690Z,7.15
2023-01-03T09:00:43.499Z,4.60
2023-01-03T09:03:33.029Z,5.95
2023-01-03T09:06:21.654Z,4.40
2023-01-03T09:09:10.361Z,4.78
2023-01-03T09:11:58.312Z,5.25
2023-01-03T09:15:08.899Z,6.32
2023-01-03T09:17:56.841Z,3.85
2023-01-03T09:20:46.452Z,5.90
2023-01-03T09:23:43.961Z,3.47
2023-01-03T09:26:32.905Z,6.93
2023-01-03T09:29:23.497Z,5.60
2023-01-03T09:32:12.945Z,7.00
2023-01-03T09:35:00.794Z,7.07
2023-01-03T09:37:49.290Z,7.60
2023-01-03T09:40:40.874Z,6.88
2023-01-03T09:43:36.792Z,6.90
2023-01-03T09:46:26.401Z,7.20
2023-01-03T09:49:16.062Z,6.22
2023-01-03T09:52:26.430Z,5.50
2023-01-03T09:55:44.259Z,5.43
2023-01-03T09:58:52.086Z,4.10
2023-01-03T10:02:06.074Z,4.60
2023-01-03T10:05:14.636Z,6.80
2023-01-03T10:08:22.895Z,6.80
2023-01-03T10:11:14.796Z,6.50
2023-01-03T10:14:19.221Z,6.63
2023-01-03T10:17:17.933Z,6.32
2023-01-03T10:20:33.497Z,5.28
2023-01-03T10:23:21.746Z,4.47
2023-01-03T10:26:13.111Z,5.22
2023-01-03T10:32:36.965Z,5.93
2023-01-03T10:35:31.044Z,5.22
2023-01-03T10:38:22.211Z,6.40
2023-01-03T10:41:19.173Z,4.15
2023-01-03T10:44:07.333Z,5.38
2023-01-03T10:46:57.996Z,5.72
2023-01-03T10:49:48.120Z,5.72
2023-01-03T10:52:42.275Z,3.83
2023-01-03T10:55:34.114Z,3.70
2023-01-03T10:58:29.274Z,3.47
2023-01-03T11:01:23.728Z,4.25
2023-01-03T11:04:18.316Z,3.25
2023-01-03T11:07:16.978Z,4.30
2023-01-03T11:10:05.497Z,3.45
2023-01-03T11:12:54.810Z,3.53
2023-01-03T11:15:44.881Z,4.65
2023-01-03T11:18:33.307Z,3.67
2023-01-03T11:21:29.539Z,3.92
2023-01-03T11:24:33.534Z,3.22
2023-01-03T11:27:32.883Z,3.05
2023-01-03T11:30:31.058Z,3.20
2023-01-03T11:33:31.632Z,3.15
2023-01-03T11:36:31.626Z,3.67
2023-01-03T11:39:42.846Z,3.67
2023-01-03T11:42:48.012Z,2.90
2023-01-03T11:46:06.318Z,3.20
2023-01-03T11:49:16.629Z,2.83
2023-01-03T11:52:19.012Z,2.95
2023-01-03T11:55:37.979Z,2.50
2023-01-03T11:59:08.209Z,2.90
2023-01-03T12:02:28.610Z,4.05
2023-01-03T12:05:55.817Z,3.40
2023-01-03T12:08:58.726Z,3.95
2023-01-03T12:12:08.870Z,3.97
2023-01-03T12:15:02.038Z,3.55
2023-01-03T12:17:58.261Z,3.72
2023-01-03T12:20:52.649Z,2.40
2023-01-03T12:24:00.545Z,2.00
2023-01-03T12:26:55.966Z,2.28
2023-01-03T12:29:55.616Z,2.22
2023-01-03T12:32:50.529Z,2.13
2023-01-03T12:35:44.657Z,2.50
2023-01-03T12:38:38.139Z,2.47
2023-01-03T12:41:34.372Z,2.28
2023-01-03T12:44:26.965Z,2.13
2023-01-03T12:47:26.644Z,2.47
2023-01-03T12:50:19.657Z,1.95
2023-01-03T12:53:18.952Z,2.50
2023-01-03T12:56:29.006Z,3.05
2023-01-03T12:59:40.417Z,2.60
2023-01-03T13:02:42.537Z,2.80
2023-01-03T13:05:37.430Z,2.55
2023-01-03T13:08:35.143Z,2.22
2023-01-03T13:11:27.186Z,2.05
2023-01-03T13:14:21.999Z,2.08
2023-01-03T13:17:17.531Z,2.20
2023-01-03T13:20:36.964Z,2.00
2023-01-03T13:23:40.055Z,2.53
2023-01-03T13:26:30.371Z,2.95
2023-01-03T13:29:47.699Z,2.63
2023-01-03T13:32:58.848Z,2.60
2023-01-03T13:36:02.888Z,2.25
2023-01-03T13:38:51.209Z,2.20
2023-01-03T13:41:40.164Z,2.20
2023-01-03T13:44:27.784Z,2.22
2023-01-03T13:47:33.326Z,2.08
2023-01-03T13:50:21.768Z,2.20
2023-01-03T13:53:30.235Z,4.13
2023-01-03T13:56:24.094Z,2.05
2023-01-03T13:59:33.474Z,2.85
2023-01-03T14:03:02.268Z,3.95
2023-01-03T14:06:20.347Z,2.55
2023-01-03T14:09:33.513Z,2.10
2023-01-03T14:12:44.188Z,2.38
2023-01-03T14:15:34.042Z,2.22
2023-01-03T14:18:28.504Z,1.70
2023-01-03T14:21:25.770Z,2.00
2023-01-03T14:24:22.916Z,2.20
2023-01-03T14:27:17.416Z,2.00
2023-01-03T14:30:20.432Z,1.90
2023-01-03T14:33:15.881Z,2.10
2023-01-03T14:36:07.166Z,1.90
2023-01-03T14:39:04.036Z,1.63
2023-01-03T14:41:52.166Z,2.60
2023-01-03T14:44:40.244Z,1.92
2023-01-03T14:47:37.040Z,2.10
2023-01-03T14:50:29.081Z,1.80
2023-01-03T14:53:19.025Z,1.70
2023-01-03T14:56:12.618Z,1.52
2023-01-03T14:59:01.431Z,1.70
2023-01-03T15:01:49.750Z,2.03
2023-01-03T15:04:44.019Z,1.80
2023-01-03T15:07:43.412Z,2.15
2023-01-03T15:10:41.561Z,2.10
2023-01-03T15:13:34.728Z,1.90
2023-01-03T15:16:30.349Z,2.20
2023-01-03T15:19:22.573Z,1.85
2023-01-03T15:22:17.106Z,2.33
2023-01-03T15:25:09.211Z,2.05
2023-01-03T15:28:14.198Z,2.45
2023-01-03T15:31:16.517Z,2.00
2023-01-03T15:34:13.632Z,2.13
2023-01-03T15:37:03.765Z,2.03
2023-01-03T15:39:54.832Z,2.00
2023-01-03T15:43:02.624Z,2.10
2023-01-03T15:45:59.737Z,2.10
2023-01-03T15:48:55.295Z,2.00
2023-01-03T15:51:43.227Z,2.00
2023-01-03T15:54:30.974Z,1.75
2023-01-03T15:57:21.486Z,2.13
2023-01-03T16:00:17.295Z,1.80
2023-01-03T16:03:07.000Z,1.90
2023-01-03T16:05:57.092Z,1.70
2023-01-03T16:08:45.632Z,1.83
2023-01-03T16:11:34.573Z,1.70
2023-01-03T16:14:27.939Z,2.00
2023-01-03T16:17:24.666Z,2.15
2023-01-03T16:20:18.459Z,2.30
2023-01-03T16:23:06.668Z,2.20
2023-01-03T16:25:54.575Z,2.08
2023-01-03T16:28:42.455Z,2.33
2023-01-03T16:31:33.810Z,2.17
2023-01-03T16:34:28.756Z,2.50
2023-01-03T16:37:20.815Z,2.15
2023-01-03T16:40:16.084Z,2.53
2023-01-03T16:43:04.202Z,2.72
2023-01-03T16:45:53.090Z,2.80
2023-01-03T16:48:47.861Z,2.97
2023-01-03T16:51:41.736Z,3.50
2023-01-03T16:54:35.130Z,3.50
2023-01-03T16:57:23.867Z,3.40
2023-01-03T17:00:20.250Z,3.80
2023-01-03T17:03:08.254Z,3.90
2023-01-03T17:05:57.202Z,3.72
2023-01-03T17:08:45.003Z,3.70
2023-01-03T17:11:35.768Z,4.22
2023-01-03T17:14:24.120Z,4.25
2023-01-03T17:17:18.298Z,4.10
2023-01-03T17:20:15.584Z,4.50
2023-01-03T17:23:03.805Z,4.63
2023-01-03T17:25:52.575Z,3.88
2023-01-03T17:28:42.542Z,4.63
2023-01-03T17:31:30.489Z,4.40
2023-01-03T17:34:27.290Z,4.50
2023-01-03T17:37:18.485Z,4.35
2023-01-03T17:40:16.927Z,4.80
2023-01-03T17:43:07.517Z,4.90
2023-01-03T17:46:23.735Z,4.53
2023-01-03T17:49:27.038Z,4.40
2023-01-03T17:52:24.813Z,4.20
2023-01-03T17:55:20.971Z,4.72
2023-01-03T17:58:16.611Z,4.22
2023-01-03T18:01:08.098Z,4.43
2023-01-03T18:03:56.194Z,4.57
2023-01-03T18:06:49.269Z,4.70
2023-01-03T18:09:38.002Z,3.92
2023-01-03T18:12:28.656Z,4.28
2023-01-03T18:15:21.091Z,4.55
2023-01-03T18:18:15.276Z,4.32
2023-01-03T18:21:04.023Z,7.78
2023-01-03T18:23:56.299Z,4.18
2023-01-03T18:26:47.833Z,8.35
2023-01-03T18:29:35.739Z,5.68
2023-01-03T18:32:27.869Z,5.32
2023-01-03T18:35:24.352Z,4.75
2023-01-03T18:38:27.194Z,9.13
2023-01-03T18:41:22.700Z,7.28
2023-01-03T18:44:19.663Z,9.95
2023-01-03T18:47:11.852Z,11.27
2023-01-03T18:49:59.798Z,8.63
2023-01-03T18:52:53.502Z,10.93
2023-01-03T18:55:41.542Z,11.10
2023-01-03T18:58:35.203Z,11.50
2023-01-03T19:01:23.867Z,15.15
2023-01-03T19:04:11.776Z,16.73
2023-01-03T19:06:59.944Z,11.45
2023-01-03T19:09:49.819Z,7.60
2023-01-03T19:12:42.508Z,11.10
2023-01-03T19:15:30.362Z,12.68
2023-01-03T19:18:18.163Z,9.18
2023-01-03T19:21:06.516Z,8.73
2023-01-03T19:24:02.078Z,8.48
2023-01-03T19:26:55.081Z,8.07
2023-01-03T19:29:44.572Z,8.35
2023-01-03T19:32:33.240Z,8.75
2023-01-03T19:35:21.954Z,9.02
2023-01-03T19:38:10.376Z,10.77
2023-01-03T19:40:58.056Z,11.40
2023-01-03T19:43:47.391Z,10.55
2023-01-03T19:46:35.209Z,11.85
2023-01-03T19:49:23.415Z,9.13
2023-01-03T19:52:11.057Z,8.93
2023-01-03T19:55:02.080Z,9.73
2023-01-03T19:57:53.546Z,8.65
2023-01-03T20:00:48.318Z,10.25
2023-01-03T20:03:40.002Z,14.32
2023-01-03T20:06:31.537Z,11.90
2023-01-03T20:09:19.191Z,8.45
2023-01-03T20:12:07.405Z,10.90
2023-01-03T20:15:01.353Z,9.05
2023-01-03T20:17:58.377Z,9.82
2023-01-03T20:20:46.452Z,9.50
2023-01-03T20:23:38.041Z,9.05
2023-01-03T20:26:28.438Z,9.20
2023-01-03T20:29:16.515Z,8.55
2023-01-03T20:32:04.712Z,8.75
2023-01-03T20:34:53.903Z,8.50
2023-01-03T20:37:41.731Z,8.10
2023-01-03T20:40:30.494Z,8.63
2023-01-03T20:43:18.398Z,8.38
2023-01-03T20:46:06.557Z,9.05
2023-01-03T20:48:58.183Z,8.13
2023-01-03T20:51:47.245Z,8.55
2023-01-03T20:54:35.271Z,8.63
2023-01-03T20:57:23.335Z,8.50
2023-01-03T21:00:24.215Z,8.18
2023-01-03T21:03:13.060Z,9.15
2023-01-03T21:06:01.078Z,8.98
2023-01-03T21:08:57.989Z,8.63
2023-01-03T21:11:47.109Z,8.60
2023-01-03T21:14:37.162Z,8.38
2023-01-03T21:17:25.256Z,8.70
2023-01-03T21:20:17.357Z,8.52
2023-01-03T21:23:09.793Z,8.85
2023-01-03T21:25:59.261Z,8.32
2023-01-03T21:28:47.103Z,8.10
2023-01-03T21:31:36.077Z,8.13
2023-01-03T21:34:24.156Z,8.35
2023-01-03T21:37:12.041Z,8.40
2023-01-03T21:40:01.042Z,8.15
2023-01-03T21:43:04.050Z,8.07
2023-01-03T21:48:43.694Z,7.95
2023-01-03T21:51:38.207Z,7.85
2023-01-03T21:54:29.886Z,7.65
2023-01-03T21:57:22.977Z,9.25
2023-01-03T22:00:13.852Z,7.57
2023-01-03T22:03:22.340Z,8.25
2023-01-03T22:06:12.903Z,7.72
2023-01-03T22:09:04.567Z,7.93
2023-01-03T22:11:53.195Z,7.75
2023-01-03T22:14:43.383Z,7.28
2023-01-03T22:17:51.923Z,7.10
2023-01-03T22:20:48.745Z,7.68
2023-01-03T22:23:37.146Z,7.50
2023-01-03T22:26:32.349Z,7.80
2023-01-03T22:29:25.125Z,8.13
2023-01-03T22:32:14.197Z,7.85
2023-01-03T22:35:03.528Z,8.30
2023-01-03T22:37:51.274Z,7.95
2023-01-03T22:40:41.444Z,7.38
2023-01-03T22:43:29.546Z,7.32
2023-01-03T22:46:18.057Z,7.35
2023-01-03T22:49:07.313Z,8.57
2023-01-03T22:51:57.844Z,7.63
2023-01-03T22:54:45.733Z,7.90
2023-01-03T22:57:35.027Z,7.68
2023-01-03T23:00:22.700Z,7.72
2023-01-03T23:03:10.775Z,7.63
2023-01-03T23:05:58.873Z,7.22
2023-01-03T23:08:51.083Z,7.32
2023-01-03T23:11:56.474Z,10.50
2023-01-03T23:14:44.378Z,10.80
2023-01-03T23:17:49.754Z,8.00
2023-01-03T23:20:48.967Z,8.48
2023-01-03T23:23:36.771Z,7.60
2023-01-03T23:26:26.239Z,7.47
2023-01-03T23:29:14.485Z,7.82
2023-01-03T23:32:02.749Z,7.57
2023-01-03T23:34:50.397Z,7.70
2023-01-03T23:37:38.320Z,8.05
2023-01-03T23:40:26.284Z,7.72
2023-01-03T23:43:17.446Z,7.72
2023-01-03T23:46:06.497Z,7.88
2023-01-03T23:48:56.749Z,8.52
2023-01-03T23:51:46.776Z,7.20
2023-01-03T23:54:36.519Z,7.85
2023-01-03T23:57:24.258Z,7.28
